Time;durP1;ratioP1;P1;durP2;ratioP2;P2;SDS_P1;SDS_P2;PMS_P1;PMS_P2;Temp;Humidity;BMP_temperature;BMP_pressure;BME280_temperature;BME280_humidity;BME280_pressure;Samples;Min_cycle;Max_cycle;Signal;HPM_P1;HPM_P2
2021/05/18 00:01:24;;;;;;;3.45;1.58;;;13.30;76.20;;;;;;5031896;28;20064;-68
2021/05/18 00:03:50;;;;;;;5.22;1.30;;;13.30;76.60;;;;;;5032264;28;20032;-68
2021/05/18 00:06:16;;;;;;;5.90;1.38;;;13.30;76.40;;;;;;5031456;28;20390;-68
2021/05/18 00:11:45;;;;;;;4.75;1.20;;;13.20;77.10;;;;;;5032555;28;20068;-68
2021/05/18 00:14:20;;;;;;;4.90;1.50;;;13.20;76.80;;;;;;5030818;28;20052;-68
2021/05/18 00:16:47;;;;;;;3.00;1.23;;;13.20;76.90;;;;;;5030812;28;20079;-69
2021/05/18 00:19:13;;;;;;;4.20;1.40;;;13.10;76.80;;;;;;5030787;28;20065;-69
2021/05/18 00:21:39;;;;;;;4.07;1.40;;;13.10;76.90;;;;;;5033007;28;20029;-68
2021/05/18 00:24:05;;;;;;;3.53;1.50;;;13.00;77.20;;;;;;5031195;28;20037;-68
2021/05/18 00:26:31;;;;;;;3.50;1.60;;;13.00;77.80;;;;;;5030697;28;20034;-68
2021/05/18 00:28:57;;;;;;;6.72;1.67;;;13.00;77.20;;;;;;5031411;28;20042;-68
2021/05/18 00:31:23;;;;;;;2.58;1.42;;;13.00;77.40;;;;;;5031304;28;20065;-68
2021/05/18 00:33:49;;;;;;;5.70;1.70;;;13.00;77.30;;;;;;5031567;28;20075;-68
2021/05/18 00:36:14;;;;;;;4.32;1.40;;;13.00;77.30;;;;;;5032433;28;20080;-68
2021/05/18 00:38:41;;;;;;;5.05;1.52;;;13.00;77.50;;;;;;5031311;28;20041;-68
2021/05/18 00:41:09;;;;;;;2.35;1.40;;;12.90;77.80;;;;;;5029912;28;20026;-68
2021/05/18 00:43:36;;;;;;;3.38;1.10;;;13.00;77.90;;;;;;5030772;28;20022;-68
2021/05/18 00:46:03;;;;;;;3.80;1.25;;;12.90;77.70;;;;;;5030811;28;20109;-68
2021/05/18 00:48:29;;;;;;;2.17;0.90;;;12.90;77.30;;;;;;5030659;28;20029;-68
2021/05/18 00:51:00;;;;;;;6.90;1.17;;;12.90;77.30;;;;;;5031673;28;20079;-68
2021/05/18 00:53:27;;;;;;;4.05;1.60;;;12.90;77.70;;;;;;5031679;28;20079;-68
2021/05/18 00:58:39;;;;;;;2.70;1.67;;;12.90;78.00;;;;;;5012442;28;20042;-68
2021/05/18 01:01:15;;;;;;;2.83;1.63;;;12.90;77.90;;;;;;5032520;28;20072;-68
2021/05/18 01:03:41;;;;;;;3.67;2.13;;;12.90;77.90;;;;;;5031807;28;20155;-68
2021/05/18 01:08:57;;;;;;;3.80;1.63;;;12.90;78.00;;;;;;5035640;28;20503;-68
2021/05/18 01:11:28;;;;;;;8.60;1.70;;;12.90;78.00;;;;;;5034883;28;20037;-68
2021/05/18 01:13:58;;;;;;;5.20;0.82;;;12.80;77.20;;;;;;5035346;28;20060;-68
2021/05/18 01:16:29;;;;;;;4.97;1.13;;;12.80;76.90;;;;;;5033721;28;20550;-68
2021/05/18 01:18:56;;;;;;;4.18;1.20;;;12.80;76.80;;;;;;5033681;28;20026;-68
2021/05/18 01:21:22;;;;;;;4.25;1.20;;;12.80;76.80;;;;;;5033857;28;20393;-68
2021/05/18 01:23:48;;;;;;;1.45;0.90;;;12.70;77.10;;;;;;5035092;28;20112;-68
2021/05/18 01:26:15;;;;;;;1.10;1.00;;;12.70;77.10;;;;;;5033490;28;20064;-68
2021/05/18 01:28:41;;;;;;;3.42;0.98;;;12.70;77.20;;;;;;5034908;28;20160;-68
2021/05/18 01:31:08;;;;;;;2.63;1.00;;;12.70;77.10;;;;;;5034283;28;20464;-68
2021/05/18 01:33:34;;;;;;;5.72;1.50;;;12.70;76.90;;;;;;5034744;28;20188;-67
2021/05/18 01:36:02;;;;;;;2.53;1.10;;;12.60;77.20;;;;;;5035180;28;20508;-68
2021/05/18 01:38:38;;;;;;;4.07;1.20;;;12.60;77.00;;;;;;5033919;28;20022;-68
2021/05/18 01:43:53;;;;;;;4.88;1.20;;;12.60;77.70;;;;;;5033894;28;20513;-68
2021/05/18 01:46:20;;;;;;;2.40;1.00;;;12.50;77.10;;;;;;5033705;28;20037;-68
2021/05/18 01:48:58;;;;;;;3.97;1.23;;;12.50;77.00;;;;;;5034942;28;20112;-68
2021/05/18 01:51:32;;;;;;;4.32;0.88;;;12.50;77.00;;;;;;5033072;28;20041;-68
2021/05/18 01:54:03;;;;;;;3.50;1.15;;;12.40;76.90;;;;;;5034017;28;20106;-68
2021/05/18 01:59:10;;;;;;;2.40;0.93;;;12.40;77.70;;;;;;5033161;28;20448;-68
2021/05/18 02:01:36;;;;;;;2.45;1.00;;;12.40;77.50;;;;;;5033681;28;20049;-68
2021/05/18 02:04:03;;;;;;;3.00;1.02;;;12.40;76.90;;;;;;5033337;28;20470;-69
2021/05/18 02:06:29;;;;;;;1.65;1.05;;;12.30;76.90;;;;;;5032196;28;20037;-68
2021/05/18 02:08:57;;;;;;;13.60;1.20;;;12.30;77.30;;;;;;5033128;28;20120;-68
2021/05/18 02:11:23;;;;;;;2.58;0.93;;;12.30;77.20;;;;;;5034350;28;20579;-68
2021/05/18 02:13:51;;;;;;;5.50;1.17;;;12.30;77.30;;;;;;5034559;28;20029;-68
2021/05/18 02:16:32;;;;;;;2.78;1.05;;;12.20;77.10;;;;;;5034384;28;20030;-68
2021/05/18 02:19:24;;;;;;;1.50;0.88;;;12.20;77.30;;;;;;5033621;28;20028;-68
2021/05/18 02:24:38;;;;;;;2.97;1.05;;;12.20;77.30;;;;;;5033001;28;20029;-68
2021/05/18 02:24:48;;;;;;;3.15;1.20;;;12.20;77.40;;;;;;5032439;28;20048;-68
2021/05/18 02:27:14;;;;;;;2.42;1.05;;;12.20;77.30;;;;;;5033361;28;20040;-68
2021/05/18 02:29:40;;;;;;;3.08;1.25;;;12.20;77.10;;;;;;5032998;28;20018;-69
2021/05/18 02:32:06;;;;;;;5.30;1.10;;;12.20;77.20;;;;;;5032721;28;20540;-68
2021/05/18 02:34:32;;;;;;;3.92;1.38;;;12.20;77.50;;;;;;5033164;28;20071;-69
2021/05/18 02:37:00;;;;;;;2.97;1.00;;;12.20;77.80;;;;;;5031516;28;20116;-68
2021/05/18 02:39:26;;;;;;;2.05;0.98;;;12.20;77.70;;;;;;5033692;28;20496;-69
2021/05/18 02:41:52;;;;;;;6.70;1.15;;;12.20;77.30;;;;;;5032603;28;20108;-69
2021/05/18 02:49:27;;;;;;;5.15;0.90;;;12.10;77.10;;;;;;5032969;28;20653;-68
2021/05/18 02:51:53;;;;;;;2.55;0.90;;;12.00;77.50;;;;;;5032695;28;20128;-68
2021/05/18 02:54:25;;;;;;;5.57;1.15;;;12.00;78.20;;;;;;5033431;28;20018;-68
2021/05/18 02:56:58;;;;;;;4.13;0.80;;;12.10;77.50;;;;;;5032142;28;20029;-68
2021/05/18 02:59:24;;;;;;;3.38;0.90;;;12.00;78.20;;;;;;5032651;28;20025;-69
2021/05/18 03:01:53;;;;;;;3.72;0.82;;;12.00;78.50;;;;;;5032305;28;20428;-68
2021/05/18 03:04:20;;;;;;;3.90;0.90;;;12.00;78.70;;;;;;5032491;28;20385;-68
2021/05/18 03:06:48;;;;;;;4.90;0.90;;;12.00;78.30;;;;;;5031817;28;20512;-68
2021/05/18 03:09:15;;;;;;;2.88;1.50;;;12.00;78.30;;;;;;5032038;28;20025;-69
2021/05/18 03:11:42;;;;;;;2.38;1.50;;;12.00;78.40;;;;;;5032114;28;20458;-69
2021/05/18 03:14:09;;;;;;;3.55;1.70;;;12.10;78.70;;;;;;5031835;28;20524;-68
2021/05/18 03:16:37;;;;;;;1.92;1.48;;;12.10;78.70;;;;;;5031173;28;20126;-68
2021/05/18 03:19:04;;;;;;;5.05;1.60;;;12.10;79.00;;;;;;5032021;28;20041;-68
2021/05/18 03:21:30;;;;;;;5.35;1.65;;;12.10;79.10;;;;;;5031644;28;20026;-68
2021/05/18 03:23:56;;;;;;;1.90;1.50;;;12.10;79.60;;;;;;5033446;28;20025;-69
2021/05/18 03:26:23;;;;;;;3.03;1.40;;;12.10;79.50;;;;;;5031518;28;20037;-68
2021/05/18 03:28:56;;;;;;;4.38;1.40;;;12.10;79.00;;;;;;5031186;28;20037;-69
2021/05/18 03:37:19;;;;;;;3.70;0.95;;;12.00;77.60;;;;;;5030084;28;20059;-68
2021/05/18 03:39:47;;;;;;;3.00;1.05;;;11.90;77.70;;;;;;5029159;28;20132;-68
2021/05/18 03:42:35;;;;;;;2.70;1.00;;;11.90;77.90;;;;;;5031790;28;20044;-68
2021/05/18 03:58:40;;;;;;;4.38;0.70;;;11.70;77.40;;;;;;5032103;28;20040;-68
2021/05/18 04:17:16;;;;;;;2.78;0.80;;;11.60;77.70;;;;;;5031701;28;20032;-69
2021/05/18 04:20:14;;;;;;;3.50;0.80;;;11.60;77.80;;;;;;5030575;28;20017;-68
2021/05/18 04:43:18;;;;;;;5.28;1.45;;;11.60;79.00;;;;;;5035372;28;20125;-68
2021/05/18 05:01:41;;;;;;;1.50;0.90;;;11.90;79.90;;;;;;5033455;28;20053;-68
2021/05/18 05:04:15;;;;;;;2.03;0.90;;;11.90;79.90;;;;;;5035927;28;20093;-68
2021/05/18 05:09:37;;;;;;;6.70;1.20;;;12.10;80.00;;;;;;5034932;28;20030;-68
2021/05/18 05:14:43;;;;;;;6.32;1.25;;;12.20;79.50;;;;;;5035038;28;20031;-68
2021/05/18 05:17:09;;;;;;;2.50;0.82;;;12.20;79.30;;;;;;5034258;28;20026;-68
2021/05/18 05:19:35;;;;;;;2.78;1.00;;;12.30;79.30;;;;;;5035286;28;20489;-67
2021/05/18 05:22:03;;;;;;;1.45;0.80;;;12.30;79.30;;;;;;5034384;28;20033;-68
2021/05/18 05:24:28;;;;;;;3.45;0.95;;;12.30;79.50;;;;;;5034303;28;20374;-68
2021/05/18 05:26:55;;;;;;;5.90;0.80;;;12.30;79.60;;;;;;5034336;28;20108;-68
2021/05/18 05:29:21;;;;;;;4.40;1.10;;;12.40;79.80;;;;;;5034556;28;20100;-68
2021/05/18 05:31:48;;;;;;;2.63;1.17;;;12.40;79.90;;;;;;5034708;28;20036;-67
2021/05/18 05:34:15;;;;;;;2.13;1.00;;;12.50;80.00;;;;;;5034814;28;20060;-68
2021/05/18 05:36:40;;;;;;;2.55;0.88;;;12.50;80.10;;;;;;5035050;28;20033;-68
2021/05/18 05:39:10;;;;;;;3.47;1.00;;;12.50;80.40;;;;;;5034466;28;20072;-67
2021/05/18 05:41:36;;;;;;;3.58;1.20;;;12.60;80.50;;;;;;5033625;28;20029;-67
2021/05/18 05:44:04;;;;;;;5.00;1.67;;;12.70;80.60;;;;;;5035321;28;20064;-69
2021/05/18 05:46:30;;;;;;;4.15;1.70;;;12.70;80.60;;;;;;5035083;28;20072;-68
2021/05/18 05:48:55;;;;;;;4.93;1.63;;;12.80;80.60;;;;;;5034657;28;20029;-68
2021/05/18 05:51:23;;;;;;;5.97;1.95;;;12.80;80.50;;;;;;5034958;28;20054;-68
2021/05/18 05:53:49;;;;;;;3.00;1.80;;;12.90;80.40;;;;;;5035203;28;20695;-67
2021/05/18 05:56:15;;;;;;;3.08;1.60;;;13.00;80.30;;;;;;5035305;28;20033;-68
2021/05/18 05:58:41;;;;;;;4.10;1.20;;;13.00;80.00;;;;;;5034723;28;20021;-69
2021/05/18 06:01:07;;;;;;;3.63;1.10;;;13.10;80.10;;;;;;5034945;28;20495;-68
2021/05/18 06:03:33;;;;;;;2.25;0.90;;;13.20;80.30;;;;;;5035137;28;20021;-68
2021/05/18 06:05:59;;;;;;;4.25;0.75;;;13.20;80.20;;;;;;5034493;28;20036;-68
2021/05/18 06:08:25;;;;;;;1.52;0.82;;;13.30;79.70;;;;;;5035024;28;20026;-68
2021/05/18 06:10:55;;;;;;;2.28;0.70;;;13.30;79.40;;;;;;5032967;28;20034;-68
2021/05/18 06:35:47;;;;;;;2.80;1.10;;;13.80;77.40;;;;;;5032538;28;20095;-68
2021/05/18 06:48:17;;;;;;;3.28;1.15;;;14.10;77.80;;;;;;5033148;28;20389;-69
2021/05/18 06:50:43;;;;;;;3.70;0.82;;;14.10;77.80;;;;;;5013638;28;20037;-69
2021/05/18 06:53:08;;;;;;;4.65;1.10;;;14.20;76.90;;;;;;5013010;28;20072;-69
2021/05/18 06:55:36;;;;;;;1.30;0.85;;;14.30;76.60;;;;;;5024618;28;20088;-69
2021/05/18 06:58:07;;;;;;;2.65;0.70;;;14.30;76.60;;;;;;5033644;28;20056;-68
2021/05/18 07:00:36;;;;;;;2.90;0.70;;;14.40;76.50;;;;;;5033737;28;20026;-68
2021/05/18 07:03:05;;;;;;;3.03;0.75;;;14.50;76.00;;;;;;5033504;28;20095;-69
2021/05/18 07:05:36;;;;;;;1.90;0.85;;;14.60;75.10;;;;;;5033506;28;20044;-68
2021/05/18 07:10:31;;;;;;;3.80;1.10;;;14.70;74.30;;;;;;5014913;28;20030;-69
2021/05/18 07:12:58;;;;;;;1.92;0.60;;;14.80;74.80;;;;;;5013017;28;20029;-68
2021/05/18 07:15:26;;;;;;;5.50;1.10;;;14.80;74.30;;;;;;5013879;28;20018;-69
2021/05/18 07:17:52;;;;;;;2.92;0.82;;;14.90;74.00;;;;;;5016374;28;20056;-68
2021/05/18 07:20:18;;;;;;;1.98;0.70;;;14.90;74.00;;;;;;5033405;28;20053;-68
2021/05/18 07:22:44;;;;;;;6.90;0.77;;;15.00;74.90;;;;;;5033299;28;20017;-68
2021/05/18 07:25:10;;;;;;;1.08;0.70;;;15.00;73.30;;;;;;5033401;28;20124;-68
2021/05/18 07:27:36;;;;;;;1.52;0.60;;;15.10;73.30;;;;;;5033054;28;20140;-68
2021/05/18 07:30:03;;;;;;;5.22;0.65;;;15.20;73.10;;;;;;5033607;28;20021;-69
2021/05/18 07:32:29;;;;;;;3.83;0.55;;;15.30;72.80;;;;;;5033204;28;20082;-68
2021/05/18 07:34:55;;;;;;;5.75;0.70;;;15.30;72.80;;;;;;5033162;28;20104;-68
2021/05/18 07:37:22;;;;;;;5.13;0.60;;;15.40;73.00;;;;;;5033213;28;20029;-67
2021/05/18 07:39:48;;;;;;;10.40;0.70;;;15.50;72.00;;;;;;5032959;28;20466;-67
2021/05/18 07:42:14;;;;;;;7.10;0.52;;;15.50;69.80;;;;;;5033006;28;20026;-68
2021/05/18 07:44:40;;;;;;;2.38;0.80;;;15.60;70.40;;;;;;5033132;28;20026;-72
2021/05/18 07:47:06;;;;;;;2.40;0.60;;;15.70;70.50;;;;;;5033450;28;20032;-68
2021/05/18 07:49:42;;;;;;;5.35;0.85;;;15.80;71.80;;;;;;5033341;28;20026;-67
2021/05/18 08:00:40;;;;;;;2.03;0.60;;;16.30;70.90;;;;;;5032927;28;20041;-68
2021/05/18 08:05:52;;;;;;;2.72;0.47;;;16.50;70.90;;;;;;5031401;28;20040;-72
2021/05/18 08:08:18;;;;;;;3.97;0.45;;;16.60;70.10;;;;;;5032288;28;20022;-71
2021/05/18 08:13:17;;;;;;;1.92;0.45;;;16.70;68.40;;;;;;5013081;28;20030;-72
2021/05/18 08:21:00;;;;;;;3.50;0.70;;;17.00;66.70;;;;;;5013417;28;20467;-71
2021/05/18 09:28:57;;;;;;;2.13;0.50;;;18.20;62.00;;;;;;5010871;28;20121;-69
2021/05/18 10:24:13;;;;;;;1.77;0.70;;;20.60;53.20;;;;;;5014706;28;20547;-70
2021/05/18 10:37:45;;;;;;;3.25;0.80;;;21.10;48.30;;;;;;5014442;28;20088;-69
2021/05/18 10:40:22;;;;;;;4.22;0.70;;;21.20;50.00;;;;;;5004151;28;20066;-69
2021/05/18 10:43:08;;;;;;;2.67;0.82;;;21.20;50.40;;;;;;5014857;28;20112;-69
2021/05/18 10:45:53;;;;;;;5.13;1.00;;;21.20;48.20;;;;;;5014454;28;20034;-69
2021/05/18 10:48:26;;;;;;;4.85;0.77;;;21.30;49.30;;;;;;5014880;28;20061;-69
2021/05/18 10:50:52;;;;;;;4.47;1.15;;;21.40;49.40;;;;;;5014129;28;20030;-70
2021/05/18 10:53:26;;;;;;;4.97;1.10;;;21.40;50.60;;;;;;5014391;28;20034;-69
2021/05/18 10:56:21;;;;;;;5.15;0.95;;;21.50;50.30;;;;;;5014140;28;20072;-68
2021/05/18 10:58:47;;;;;;;5.30;1.10;;;21.60;50.00;;;;;;5008052;28;20546;-68
2021/05/18 11:01:13;;;;;;;4.93;1.13;;;21.70;49.90;;;;;;5014672;28;20129;-68
2021/05/18 11:03:39;;;;;;;3.95;1.10;;;21.80;48.90;;;;;;5014610;28;20022;-68
2021/05/18 11:06:08;;;;;;;4.78;0.98;;;21.80;46.40;;;;;;5014762;28;20034;-68
2021/05/18 11:08:34;;;;;;;4.70;1.17;;;21.70;46.60;;;;;;5014391;28;20505;-68
2021/05/18 11:11:01;;;;;;;4.53;1.02;;;21.70;48.40;;;;;;5014322;28;20025;-68
2021/05/18 11:13:28;;;;;;;4.03;1.25;;;21.60;47.70;;;;;;5014373;28;20485;-69
2021/05/18 11:15:54;;;;;;;4.55;1.10;;;21.60;48.80;;;;;;5014223;28;20018;-69
2021/05/18 11:18:19;;;;;;;4.40;1.10;;;21.50;48.50;;;;;;5014418;28;20036;-68
2021/05/18 11:25:56;;;;;;;6.22;1.00;;;21.80;51.20;;;;;;5013690;28;20048;-68
2021/05/18 11:28:23;;;;;;;6.70;1.10;;;21.90;51.70;;;;;;5013761;28;20442;-67
2021/05/18 11:30:55;;;;;;;8.75;1.88;;;22.10;53.20;;;;;;5010395;28;20022;-67
2021/05/18 11:33:28;;;;;;;3.63;1.45;;;22.20;53.80;;;;;;5011142;28;20439;-68
2021/05/18 11:36:21;;;;;;;6.65;1.50;;;22.30;53.70;;;;;;5010458;28;20030;-68
2021/05/18 11:38:58;;;;;;;7.53;1.48;;;22.40;52.50;;;;;;5009266;28;20402;-68
2021/05/18 11:41:29;;;;;;;4.43;1.15;;;22.50;51.30;;;;;;5014920;28;20068;-67
2021/05/18 11:44:00;;;;;;;5.18;1.17;;;22.60;52.80;;;;;;5024211;28;20046;-67
2021/05/18 11:46:27;;;;;;;7.30;1.83;;;22.60;51.20;;;;;;5022348;28;20033;-67
2021/05/18 11:49:03;;;;;;;7.93;1.50;;;22.70;53.40;;;;;;5026728;28;20061;-67
2021/05/18 11:51:40;;;;;;;8.95;1.65;;;22.80;52.80;;;;;;5033008;28;20049;-68
2021/05/18 11:54:07;;;;;;;3.30;1.13;;;22.90;51.50;;;;;;5033225;28;20033;-68
2021/05/18 11:56:36;;;;;;;8.15;1.50;;;22.90;51.90;;;;;;5033220;28;20025;-67
2021/05/18 11:59:09;;;;;;;4.28;1.23;;;23.00;49.80;;;;;;5033005;28;20028;-67
2021/05/18 12:01:48;;;;;;;7.57;1.48;;;23.00;51.30;;;;;;5033042;28;20074;-67
2021/05/18 12:04:16;;;;;;;3.58;1.23;;;23.10;50.40;;;;;;5033272;28;20028;-68
2021/05/18 12:06:58;;;;;;;6.60;1.88;;;23.00;50.80;;;;;;5033128;28;20064;-68
2021/05/18 12:09:25;;;;;;;9.32;1.67;;;23.00;48.60;;;;;;5033018;28;20100;-67
2021/05/18 12:11:59;;;;;;;7.53;1.60;;;23.00;51.20;;;;;;5033089;28;20462;-68
2021/05/18 12:14:25;;;;;;;11.82;1.90;;;22.90;52.70;;;;;;5032906;28;20025;-67
2021/05/18 12:16:52;;;;;;;6.97;1.55;;;22.90;53.60;;;;;;5033010;28;20041;-67
2021/05/18 12:19:19;;;;;;;7.78;2.13;;;22.90;50.00;;;;;;5033003;28;20033;-68
2021/05/18 12:21:51;;;;;;;7.13;1.65;;;22.90;52.00;;;;;;5033045;28;20025;-67
2021/05/18 12:24:18;;;;;;;4.22;1.20;;;22.80;51.20;;;;;;5032973;28;20072;-67
2021/05/18 12:27:04;;;;;;;5.53;1.45;;;22.80;48.90;;;;;;5032727;28;20041;-68
2021/05/18 12:29:46;;;;;;;3.28;1.20;;;22.70;48.30;;;;;;5032433;28;20068;-67
2021/05/18 12:32:26;;;;;;;8.80;2.00;;;22.60;50.70;;;;;;5032781;28;20075;-67
2021/05/18 12:34:56;;;;;;;8.55;1.67;;;22.60;52.40;;;;;;5032426;28;20044;-68
2021/05/18 12:37:32;;;;;;;8.25;1.50;;;22.50;53.10;;;;;;5032671;28;20030;-68
2021/05/18 12:39:58;;;;;;;6.20;1.88;;;22.60;52.90;;;;;;5032349;28;20029;-68
2021/05/18 12:42:27;;;;;;;10.18;1.88;;;22.50;53.80;;;;;;5032572;28;20458;-67
2021/05/18 12:44:52;;;;;;;8.10;1.67;;;22.50;54.50;;;;;;5032740;28;20030;-67
2021/05/18 12:47:25;;;;;;;7.47;1.90;;;22.40;54.40;;;;;;5032910;28;20041;-69
2021/05/18 12:49:51;;;;;;;6.60;1.60;;;22.40;56.00;;;;;;5033345;28;20432;-68
2021/05/18 12:52:17;;;;;;;9.95;2.15;;;22.40;54.00;;;;;;5036252;28;20060;-66
2021/05/18 12:54:55;;;;;;;6.88;1.55;;;22.40;54.50;;;;;;5036589;28;20394;-65
2021/05/18 12:57:27;;;;;;;9.40;1.73;;;22.50;52.50;;;;;;5036237;28;20041;-65
2021/05/18 13:00:09;;;;;;;10.00;1.65;;;22.50;51.90;;;;;;5036324;28;20025;-65
2021/05/18 14:02:17;;;;;;;14.63;2.40;;;21.30;58.50;;;;;;5131044;27;20310;-65
2021/05/18 14:04:43;;;;;;;14.90;2.63;;;21.20;59.70;;;;;;5130256;28;20038;-66
2021/05/18 14:09:56;;;;;;;8.98;2.42;;;21.30;60.60;;;;;;5130771;28;20030;-65
2021/05/18 14:12:22;;;;;;;12.38;2.85;;;21.50;60.10;;;;;;5130148;27;20023;-65
2021/05/18 14:14:47;;;;;;;10.73;2.13;;;21.70;58.10;;;;;;5130943;27;20039;-65
2021/05/18 14:17:13;;;;;;;11.15;2.40;;;21.90;59.50;;;;;;5131060;27;20016;-66
2021/05/18 14:19:39;;;;;;;9.73;2.38;;;22.00;58.10;;;;;;5130758;27;20364;-68
2021/05/18 14:22:06;;;;;;;10.00;2.30;;;22.20;56.70;;;;;;5130336;27;20547;-66
2021/05/18 14:24:44;;;;;;;12.48;2.20;;;22.30;56.50;;;;;;5130774;27;20488;-66
2021/05/18 14:27:18;;;;;;;9.55;2.13;;;22.40;55.00;;;;;;5130134;27;20032;-68
2021/05/18 14:29:43;;;;;;;8.98;2.15;;;22.50;54.00;;;;;;5130826;27;20069;-66
2021/05/18 14:32:09;;;;;;;6.03;1.80;;;22.60;55.10;;;;;;5130839;27;20019;-66
2021/05/18 14:34:35;;;;;;;10.98;2.22;;;22.70;53.30;;;;;;5130497;27;20059;-66
2021/05/18 14:37:00;;;;;;;5.82;1.58;;;22.80;53.50;;;;;;5130660;27;20352;-66
2021/05/18 14:39:48;;;;;;;10.23;2.08;;;22.80;53.80;;;;;;5130552;28;20032;-66
2021/05/18 14:44:56;;;;;;;7.82;1.88;;;22.90;51.30;;;;;;5130636;28;20062;-66
2021/05/18 14:47:24;;;;;;;9.38;2.25;;;22.90;50.00;;;;;;5130299;27;20429;-67
2021/05/18 14:55:20;;;;;;;9.35;2.03;;;22.80;50.80;;;;;;5150952;27;20085;-66
2021/05/18 14:57:47;;;;;;;8.35;2.03;;;22.90;51.50;;;;;;5151017;27;20019;-66
2021/05/18 15:00:14;;;;;;;13.00;2.10;;;22.90;51.50;;;;;;5150419;27;20521;-66
2021/05/18 15:02:40;;;;;;;14.20;2.15;;;22.90;51.00;;;;;;5150623;27;20027;-66
2021/05/18 15:05:07;;;;;;;6.40;2.00;;;22.80;50.20;;;;;;5150490;27;20114;-66
2021/05/18 15:07:32;;;;;;;9.63;2.28;;;22.70;49.00;;;;;;5150321;27;20023;-66
2021/05/18 15:09:58;;;;;;;9.77;2.17;;;22.50;49.20;;;;;;5149999;27;20033;-66
2021/05/18 15:12:24;;;;;;;10.70;2.60;;;22.40;50.20;;;;;;5143112;27;20027;-66
2021/05/18 15:14:50;;;;;;;8.82;2.80;;;22.40;50.70;;;;;;5129895;27;20058;-66
2021/05/18 15:17:16;;;;;;;9.75;2.40;;;22.30;51.20;;;;;;5136728;27;20034;-66
2021/05/18 15:19:44;;;;;;;17.25;2.40;;;22.30;49.60;;;;;;5137021;27;20022;-67
2021/05/18 15:22:10;;;;;;;11.70;2.38;;;22.20;48.50;;;;;;5136728;27;20485;-67
2021/05/18 15:24:36;;;;;;;9.00;2.60;;;22.00;49.40;;;;;;5136834;27;20027;-67
2021/05/18 15:27:03;;;;;;;18.50;2.97;;;21.90;50.20;;;;;;5136426;27;20023;-66
2021/05/18 15:29:29;;;;;;;11.45;2.80;;;21.80;50.90;;;;;;5136819;27;20023;-66
2021/05/18 15:31:55;;;;;;;11.55;2.70;;;21.70;51.60;;;;;;5136668;27;20502;-65
2021/05/18 15:34:20;;;;;;;11.57;2.70;;;21.70;53.20;;;;;;5136720;27;20026;-65
2021/05/18 15:36:46;;;;;;;12.02;2.63;;;21.70;52.30;;;;;;5136584;27;20435;-66
2021/05/18 15:39:12;;;;;;;13.25;3.35;;;21.60;53.20;;;;;;5127645;27;20039;-66
2021/05/18 15:41:38;;;;;;;13.07;3.35;;;21.50;52.20;;;;;;5115088;28;20122;-66
2021/05/18 15:44:04;;;;;;;11.50;3.72;;;21.50;53.40;;;;;;5115784;28;20024;-66
2021/05/18 15:46:30;;;;;;;12.15;2.95;;;21.50;50.60;;;;;;5115392;28;20027;-66
2021/05/18 15:48:55;;;;;;;12.93;3.03;;;21.40;51.60;;;;;;5114656;28;20012;-66
2021/05/18 15:51:21;;;;;;;10.90;2.70;;;21.40;52.30;;;;;;5115306;28;20035;-66
2021/05/18 15:53:47;;;;;;;7.38;2.03;;;21.40;52.60;;;;;;5114845;28;20027;-66
2021/05/18 15:56:12;;;;;;;13.75;2.90;;;21.40;52.70;;;;;;5115922;28;20023;-66
2021/05/18 15:58:38;;;;;;;10.48;2.60;;;21.30;52.00;;;;;;5115675;28;20028;-66
2021/05/18 16:01:04;;;;;;;12.07;2.72;;;21.30;53.30;;;;;;5115650;28;20044;-66
2021/05/18 16:03:30;;;;;;;11.30;2.70;;;21.40;54.70;;;;;;5115520;28;20512;-66
2021/05/18 16:05:59;;;;;;;12.23;3.33;;;21.40;54.60;;;;;;5115794;28;20020;-67
2021/05/18 16:10:59;;;;;;;12.23;2.00;;;21.40;53.20;;;;;;5115429;28;20045;-66
2021/05/18 16:13:25;;;;;;;12.07;2.60;;;21.40;51.90;;;;;;5115343;28;20028;-66
2021/05/18 16:15:51;;;;;;;10.85;2.33;;;21.40;52.60;;;;;;5115213;28;20023;-66
2021/05/18 16:18:17;;;;;;;10.10;2.42;;;21.40;53.50;;;;;;5113608;28;20110;-65
2021/05/18 16:20:44;;;;;;;8.00;2.40;;;21.40;52.50;;;;;;5111750;28;20080;-66
2021/05/18 16:23:10;;;;;;;9.82;2.15;;;21.50;52.70;;;;;;5112061;28;20088;-66
2021/05/18 16:25:36;;;;;;;8.73;2.30;;;21.50;52.40;;;;;;5113427;28;20095;-66
2021/05/18 16:28:02;;;;;;;10.30;2.10;;;21.50;52.50;;;;;;5114272;28;20039;-66
2021/05/18 16:30:28;;;;;;;7.80;2.20;;;21.40;52.30;;;;;;5114205;28;20052;-66
2021/05/18 16:32:54;;;;;;;13.00;3.30;;;21.40;52.40;;;;;;5113520;28;20379;-66
2021/05/18 16:35:20;;;;;;;11.25;2.20;;;21.30;52.60;;;;;;5114728;28;20429;-66
2021/05/18 16:37:45;;;;;;;7.43;2.10;;;21.30;53.30;;;;;;5114587;28;20409;-66
2021/05/18 16:40:13;;;;;;;10.00;2.35;;;21.40;53.90;;;;;;5112732;28;20027;-67
2021/05/18 16:42:39;;;;;;;8.77;2.00;;;21.40;53.70;;;;;;5112118;28;20034;-66
2021/05/18 16:45:06;;;;;;;10.38;2.55;;;21.40;53.80;;;;;;5113621;28;20470;-67
2021/05/18 16:47:33;;;;;;;12.15;2.60;;;21.40;53.80;;;;;;5114874;28;20019;-65
2021/05/18 16:49:58;;;;;;;10.65;2.67;;;21.40;53.10;;;;;;5114421;28;20024;-66
2021/05/18 16:52:25;;;;;;;11.45;2.15;;;21.30;53.00;;;;;;5114665;28;20034;-66
2021/05/18 16:54:50;;;;;;;11.07;2.10;;;21.30;51.80;;;;;;5113120;28;20483;-66
2021/05/18 16:57:16;;;;;;;12.23;2.00;;;21.30;52.70;;;;;;5114633;28;20028;-66
2021/05/18 16:59:42;;;;;;;14.00;2.25;;;21.20;52.80;;;;;;5114385;28;20523;-66
2021/05/18 17:02:08;;;;;;;8.10;2.03;;;21.20;52.40;;;;;;5114080;28;20089;-66
2021/05/18 17:04:33;;;;;;;14.93;2.55;;;21.20;52.50;;;;;;5114697;28;20090;-66
2021/05/18 17:07:02;;;;;;;13.25;2.70;;;21.20;52.50;;;;;;5114459;27;20051;-67
2021/05/18 17:09:28;;;;;;;14.98;2.47;;;21.20;53.70;;;;;;5113425;28;20028;-66
2021/05/18 17:11:54;;;;;;;11.00;2.42;;;21.10;54.80;;;;;;5114306;28;20123;-67
2021/05/18 17:14:22;;;;;;;10.40;2.88;;;21.10;55.80;;;;;;5112974;28;20012;-66
2021/05/18 17:16:48;;;;;;;10.98;2.38;;;21.10;56.50;;;;;;5114390;28;20464;-66
2021/05/18 17:19:13;;;;;;;13.70;3.28;;;21.00;57.30;;;;;;5114224;28;20033;-66
2021/05/18 17:21:39;;;;;;;12.02;2.90;;;20.90;57.90;;;;;;5114151;28;20031;-66
2021/05/18 17:24:06;;;;;;;16.48;2.97;;;20.90;58.30;;;;;;5114043;28;20032;-66
2021/05/18 17:26:32;;;;;;;12.18;2.97;;;20.80;59.00;;;;;;5114168;28;20102;-67
2021/05/18 17:28:57;;;;;;;12.07;2.65;;;20.80;59.30;;;;;;5114290;28;20102;-67
2021/05/18 17:31:23;;;;;;;14.45;3.25;;;20.80;59.30;;;;;;5114127;28;20034;-66
2021/05/18 17:33:49;;;;;;;21.17;3.58;;;20.80;59.50;;;;;;5114002;28;20035;-66
2021/05/18 17:36:15;;;;;;;18.52;3.30;;;20.70;59.40;;;;;;5113588;28;20559;-66
2021/05/18 17:38:41;;;;;;;12.20;3.38;;;20.70;59.80;;;;;;5114088;28;20027;-67
2021/05/18 17:41:07;;;;;;;13.23;3.05;;;20.70;60.30;;;;;;5114038;28;20418;-66
2021/05/18 17:43:35;;;;;;;12.65;2.83;;;20.60;60.60;;;;;;5114134;28;20054;-67
2021/05/18 17:46:03;;;;;;;14.32;3.33;;;20.60;60.80;;;;;;5113594;28;20019;-68
2021/05/18 17:48:28;;;;;;;12.52;2.72;;;20.50;61.00;;;;;;5113658;28;20391;-67
2021/05/18 17:50:54;;;;;;;17.70;3.38;;;20.50;61.40;;;;;;5113577;28;20038;-67
2021/05/18 17:53:20;;;;;;;14.07;3.00;;;20.50;61.80;;;;;;5113670;28;20090;-66
2021/05/18 17:55:46;;;;;;;18.63;4.25;;;20.50;61.90;;;;;;5113560;28;20541;-66
2021/05/18 17:58:13;;;;;;;15.60;3.70;;;20.50;61.90;;;;;;5113832;28;20514;-66
2021/05/18 18:00:39;;;;;;;10.07;2.90;;;20.40;62.10;;;;;;5113557;28;20411;-67
2021/05/18 18:03:05;;;;;;;15.65;3.28;;;20.40;61.70;;;;;;5113600;28;20034;-67
2021/05/18 18:05:31;;;;;;;8.75;3.15;;;20.40;61.70;;;;;;5113464;28;20020;-67
2021/05/18 18:07:57;;;;;;;11.65;2.70;;;20.30;61.90;;;;;;5113630;28;20421;-67
2021/05/18 18:10:23;;;;;;;14.68;3.20;;;20.30;61.30;;;;;;5113264;28;20380;-66
2021/05/18 18:12:49;;;;;;;13.85;2.75;;;20.20;60.40;;;;;;5113589;28;20027;-66
2021/05/18 18:15:17;;;;;;;14.50;2.88;;;20.20;60.90;;;;;;5113732;28;20024;-66
2021/05/18 18:17:43;;;;;;;17.25;3.05;;;20.10;61.50;;;;;;5113430;28;20417;-66
2021/05/18 18:20:11;;;;;;;13.82;3.45;;;20.10;62.60;;;;;;5113440;28;20024;-67
2021/05/18 18:22:38;;;;;;;11.73;3.20;;;20.00;63.80;;;;;;5113595;28;20030;-66
2021/05/18 18:25:06;;;;;;;12.68;3.38;;;20.00;64.80;;;;;;5113213;28;20465;-66
2021/05/18 18:27:31;;;;;;;12.73;3.67;;;19.90;66.10;;;;;;5113324;28;20023;-66
2021/05/18 18:29:58;;;;;;;15.27;4.05;;;19.80;66.60;;;;;;5113292;28;20388;-66
2021/05/18 18:32:24;;;;;;;16.58;3.80;;;19.80;67.00;;;;;;5113473;28;20027;-66
2021/05/18 18:34:50;;;;;;;14.20;3.25;;;19.80;67.30;;;;;;5113403;28;20020;-66
2021/05/18 18:37:16;;;;;;;12.75;3.33;;;19.70;67.80;;;;;;5113373;28;20024;-66
2021/05/18 18:39:43;;;;;;;18.40;3.30;;;19.70;67.60;;;;;;5113057;28;20027;-66
2021/05/18 18:42:10;;;;;;;13.30;3.13;;;19.70;68.10;;;;;;5113393;28;20099;-66
2021/05/18 18:44:36;;;;;;;18.48;4.47;;;19.70;68.20;;;;;;5113173;28;20388;-66
2021/05/18 18:47:03;;;;;;;17.52;3.67;;;19.70;68.00;;;;;;5113553;28;20023;-66